Time;durP1;ratioP1;P1;durP2;ratioP2;P2;SDS_P1;SDS_P2;PMS_P1;PMS_P2;Temp;Humidity;BMP_temperature;BMP_pressure;BME280_temperature;BME280_humidity;BME280_pressure;Samples;Min_cycle;Max_cycle;Signal;HPM_P1;HPM_P2
2021/04/23 00:01:16;;;;;;;;;;;;;;;11.73;42.09;101854.69;4913355;28;98431;-83
2021/04/23 00:03:43;;;;;;;;;;;;;;;11.91;41.52;101861.38;4910115;28;97849;-83
2021/04/23 00:06:11;;;;;;;;;;;;;;;11.49;42.45;101868.44;4916335;28;96792;-84
2021/04/23 00:08:38;;;;;;;;;;;;;;;11.80;41.89;101863.41;4921858;28;97731;-82
2021/04/23 00:11:05;;;;;;;;;;;;;;;11.48;42.96;101862.31;4939937;28;98911;-81
2021/04/23 00:13:31;;;;;;;;;;;;;;;11.38;43.53;101863.41;4916900;28;97701;-81
2021/04/23 00:15:57;;;;;;;;;;;;;;;11.38;43.21;101860.75;4918699;28;97152;-82
2021/04/23 00:18:23;;;;;;;;;;;;;;;11.53;43.29;101863.06;4919937;28;97176;-83
2021/04/23 00:20:49;;;;;;;;;;;;;;;11.48;43.37;101872.03;4912134;28;98935;-82
2021/04/23 00:23:16;;;;;;;;;;;;;;;10.85;45.41;101864.47;4916436;28;97754;-83
2021/04/23 00:25:42;;;;;;;;;;;;;;;11.20;44.93;101858.50;4909112;28;97193;-83
2021/04/23 00:28:12;;;;;;;;;;;;;;;11.58;44.08;101869.13;4921131;28;96788;-82
2021/04/23 00:30:39;;;;;;;;;;;;;;;11.21;44.83;101872.59;4926014;28;98153;-83
2021/04/23 00:33:06;;;;;;;;;;;;;;;11.64;44.30;101867.25;4908489;28;97910;-83
2021/04/23 00:35:33;;;;;;;;;;;;;;;11.48;44.61;101858.78;4922427;28;97112;-83
2021/04/23 00:38:00;;;;;;;;;;;;;;;11.52;44.29;101855.16;4924200;28;97158;-83
2021/04/23 00:40:27;;;;;;;;;;;;;;;11.48;44.38;101856.16;4929953;28;98889;-83
2021/04/23 00:42:53;;;;;;;;;;;;;;;11.34;44.88;101852.91;4916949;28;99157;-83
2021/04/23 00:45:21;;;;;;;;;;;;;;;11.42;44.45;101853.63;4925184;28;96916;-82
2021/04/23 00:47:48;;;;;;;;;;;;;;;10.84;45.56;101857.44;4930124;28;96839;-83
2021/04/23 00:52:54;;;;;;;;;;;;;;;11.35;44.30;101857.31;4927787;28;99162;-83
2021/04/23 00:55:20;;;;;;;;;;;;;;;11.40;44.43;101863.38;4930987;28;97200;-82
2021/04/23 00:57:46;;;;;;;;;;;;;;;11.08;44.97;101856.09;4925820;28;98526;-83
2021/04/23 01:00:13;;;;;;;;;;;;;;;11.15;44.65;101853.31;4918111;28;98101;-83
2021/04/23 01:02:39;;;;;;;;;;;;;;;10.97;45.34;101856.28;4922048;28;98865;-83
2021/04/23 01:05:06;;;;;;;;;;;;;;;10.82;46.00;101855.75;4920865;28;96743;-84
2021/04/23 01:07:32;;;;;;;;;;;;;;;10.83;45.99;101855.69;4911044;28;97145;-83
2021/04/23 01:09:58;;;;;;;;;;;;;;;10.73;46.39;101855.00;4925389;28;97914;-85
2021/04/23 01:12:23;;;;;;;;;;;;;;;10.89;46.14;101863.53;4934629;28;97747;-84
2021/04/23 01:14:49;;;;;;;;;;;;;;;10.75;46.55;101853.22;4925821;28;97668;-85
2021/04/23 01:17:15;;;;;;;;;;;;;;;10.96;45.68;101864.28;4913972;28;96843;-84
2021/04/23 01:19:42;;;;;;;;;;;;;;;11.16;45.71;101856.78;4925270;28;98961;-85
2021/04/23 01:22:09;;;;;;;;;;;;;;;10.96;45.71;101851.91;4918760;28;101835;-84
2021/04/23 01:24:34;;;;;;;;;;;;;;;11.02;45.64;101859.75;4919894;28;96793;-83
2021/04/23 01:27:00;;;;;;;;;;;;;;;10.91;46.13;101852.91;4919222;28;97230;-82
2021/04/23 01:29:26;;;;;;;;;;;;;;;11.15;45.95;101863.00;4910203;28;98890;-83
2021/04/23 01:31:55;;;;;;;;;;;;;;;10.96;45.92;101861.63;4925689;28;99338;-83
2021/04/23 01:34:24;;;;;;;;;;;;;;;11.10;45.96;101862.22;4927008;28;96763;-83
2021/04/23 01:36:51;;;;;;;;;;;;;;;11.05;46.33;101858.78;4907301;28;97012;-83
2021/04/23 01:39:20;;;;;;;;;;;;;;;10.83;46.83;101860.13;4919103;28;99030;-83
2021/04/23 01:41:46;;;;;;;;;;;;;;;11.24;45.93;101861.94;4921552;28;99079;-82
2021/04/23 01:44:12;;;;;;;;;;;;;;;11.09;46.26;101863.97;4914734;28;97390;-82
2021/04/23 01:46:38;;;;;;;;;;;;;;;11.02;46.78;101862.38;4920347;28;97937;-83
2021/04/23 01:49:06;;;;;;;;;;;;;;;10.87;47.17;101861.81;4913149;28;98929;-81
2021/04/23 01:51:32;;;;;;;;;;;;;;;10.44;47.91;101867.84;4927922;28;97979;-82
2021/04/23 01:53:57;;;;;;;;;;;;;;;10.78;47.30;101866.34;4917688;28;96920;-83
2021/04/23 01:56:24;;;;;;;;;;;;;;;11.17;46.52;101871.78;4907457;28;96919;-83
2021/04/23 01:58:50;;;;;;;;;;;;;;;11.11;46.58;101871.91;4915408;28;98923;-82
2021/04/23 02:01:17;;;;;;;;;;;;;;;10.99;46.72;101867.72;4926682;28;98844;-83
2021/04/23 02:03:43;;;;;;;;;;;;;;;10.80;46.95;101863.69;4925655;28;97082;-83
2021/04/23 02:06:10;;;;;;;;;;;;;;;10.97;47.06;101869.50;4921502;28;96828;-83
2021/04/23 02:08:36;;;;;;;;;;;;;;;11.18;46.76;101879.69;4916125;28;98007;-83
2021/04/23 02:11:04;;;;;;;;;;;;;;;11.14;46.80;101874.50;4901147;28;99010;-81
2021/04/23 02:13:31;;;;;;;;;;;;;;;11.33;46.19;101870.56;4924560;28;96869;-82
2021/04/23 02:15:57;;;;;;;;;;;;;;;10.92;47.18;101874.03;4919222;28;96845;-83
2021/04/23 02:18:23;;;;;;;;;;;;;;;11.35;46.32;101873.19;4920883;28;99289;-83
2021/04/23 02:20:49;;;;;;;;;;;;;;;10.93;47.24;101872.25;4922133;28;101143;-83
2021/04/23 02:23:18;;;;;;;;;;;;;;;11.19;46.70;101877.91;4922232;28;98595;-83
2021/04/23 02:25:44;;;;;;;;;;;;;;;11.10;46.77;101872.78;4941992;28;96780;-83
2021/04/23 02:28:10;;;;;;;;;;;;;;;10.49;47.95;101875.72;4922661;28;98355;-83
2021/04/23 02:30:38;;;;;;;;;;;;;;;10.50;48.38;101880.94;4932745;28;98983;-83
2021/04/23 02:33:05;;;;;;;;;;;;;;;10.87;47.65;101875.03;4934235;28;96443;-82
2021/04/23 02:35:31;;;;;;;;;;;;;;;10.90;47.90;101870.53;4926390;28;96471;-82
2021/04/23 02:37:57;;;;;;;;;;;;;;;10.77;47.87;101863.72;4934697;28;97835;-82
2021/04/23 02:40:26;;;;;;;;;;;;;;;10.95;47.46;101865.19;4938705;28;97686;-83
2021/04/23 02:42:53;;;;;;;;;;;;;;;10.79;47.83;101873.38;4937041;28;97518;-82
2021/04/23 02:45:21;;;;;;;;;;;;;;;10.74;48.21;101880.53;4932902;28;96257;-82
2021/04/23 02:47:49;;;;;;;;;;;;;;;10.81;47.92;101876.00;4936475;28;97784;-83
2021/04/23 02:50:17;;;;;;;;;;;;;;;10.63;48.14;101876.34;4943917;28;98945;-81
2021/04/23 02:52:44;;;;;;;;;;;;;;;10.87;47.63;101882.94;4938574;28;96197;-82
2021/04/23 02:55:13;;;;;;;;;;;;;;;11.05;47.20;101882.59;4925383;28;96462;-83
2021/04/23 02:57:39;;;;;;;;;;;;;;;10.53;48.83;101890.59;4924771;28;97817;-83
2021/04/23 03:00:07;;;;;;;;;;;;;;;10.86;47.55;101882.06;4939381;28;97770;-84
2021/04/23 03:02:33;;;;;;;;;;;;;;;10.78;47.67;101887.50;4920590;28;96846;-83
2021/04/23 03:05:00;;;;;;;;;;;;;;;10.86;47.39;101894.44;4904379;28;96992;-83
2021/04/23 03:07:25;;;;;;;;;;;;;;;11.04;46.91;101892.31;4925935;28;98264;-83
2021/04/23 03:09:51;;;;;;;;;;;;;;;11.03;46.80;101897.63;4912542;28;98924;-83
2021/04/23 03:12:17;;;;;;;;;;;;;;;11.00;47.05;101902.97;4923950;28;96858;-83
2021/04/23 03:14:43;;;;;;;;;;;;;;;11.00;47.08;101903.84;4936273;28;97399;-83
2021/04/23 03:17:09;;;;;;;;;;;;;;;11.12;46.82;101898.31;4916323;28;98934;-84
2021/04/23 03:19:35;;;;;;;;;;;;;;;11.10;47.03;101901.88;4928595;28;98978;-83
2021/04/23 03:22:02;;;;;;;;;;;;;;;11.01;47.21;101895.03;4899920;28;96870;-83
2021/04/23 03:24:29;;;;;;;;;;;;;;;11.01;47.10;101902.97;4919605;28;96884;-83
2021/04/23 03:26:55;;;;;;;;;;;;;;;11.28;46.41;101911.25;4916581;28;98193;-83
2021/04/23 03:29:20;;;;;;;;;;;;;;;11.13;47.07;101912.44;4920798;28;98216;-84
2021/04/23 03:31:47;;;;;;;;;;;;;;;10.31;49.24;101911.22;4919529;28;97017;-84
2021/04/23 03:34:14;;;;;;;;;;;;;;;9.87;50.79;101917.16;4931675;28;96526;-83
2021/04/23 03:36:40;;;;;;;;;;;;;;;10.31;49.40;101909.47;4943815;28;97810;-83
2021/04/23 03:39:09;;;;;;;;;;;;;;;10.72;48.53;101921.13;4942317;28;96848;-82
2021/04/23 03:41:35;;;;;;;;;;;;;;;10.69;48.10;101919.41;4936344;28;96493;-83
2021/04/23 03:44:01;;;;;;;;;;;;;;;10.93;47.61;101922.50;4940438;28;96677;-83
2021/04/23 03:46:27;;;;;;;;;;;;;;;10.78;48.20;101916.59;4947848;28;97029;-82
2021/04/23 03:48:53;;;;;;;;;;;;;;;10.95;47.43;101912.78;4936233;28;98107;-83
2021/04/23 03:51:19;;;;;;;;;;;;;;;11.12;47.32;101915.97;4921126;28;96866;-83
2021/04/23 03:53:46;;;;;;;;;;;;;;;11.06;47.12;101916.97;4917212;28;98428;-83
2021/04/23 03:56:13;;;;;;;;;;;;;;;10.77;48.15;101920.13;4910211;28;98855;-83
2021/04/23 03:58:39;;;;;;;;;;;;;;;10.38;49.21;101915.50;4916961;28;97531;-83
2021/04/23 04:01:07;;;;;;;;;;;;;;;10.75;48.42;101932.53;4914174;28;96945;-83
2021/04/23 04:03:33;;;;;;;;;;;;;;;10.50;48.89;101928.53;4927704;28;97004;-83
2021/04/23 04:05:59;;;;;;;;;;;;;;;10.46;48.32;101928.59;4924364;28;97860;-83
2021/04/23 04:08:26;;;;;;;;;;;;;;;10.24;49.93;101930.75;4913399;28;99955;-80
2021/04/23 04:10:52;;;;;;;;;;;;;;;10.84;48.50;101931.47;4912382;28;97179;-82
2021/04/23 04:13:19;;;;;;;;;;;;;;;10.33;49.32;101934.09;4931364;28;97165;-83
2021/04/23 04:15:45;;;;;;;;;;;;;;;10.75;48.75;101943.09;4929038;28;100143;-84
2021/04/23 04:18:11;;;;;;;;;;;;;;;10.66;48.85;101937.97;4932693;28;99261;-82
2021/04/23 04:20:40;;;;;;;;;;;;;;;10.57;49.12;101947.78;4919820;28;96743;-81
2021/04/23 04:23:08;;;;;;;;;;;;;;;10.93;48.28;101947.19;4925651;28;96939;-83
2021/04/23 04:25:36;;;;;;;;;;;;;;;11.14;47.52;101941.50;4929083;28;98932;-82
2021/04/23 04:28:02;;;;;;;;;;;;;;;11.02;47.90;101952.31;4902688;28;99749;-82
2021/04/23 04:30:29;;;;;;;;;;;;;;;10.55;49.54;101949.59;4884549;28;96826;-83
2021/04/23 04:32:56;;;;;;;;;;;;;;;10.27;50.18;101944.75;4887200;28;96933;-83
2021/04/23 04:35:22;;;;;;;;;;;;;;;10.57;49.36;101948.66;4884110;28;100882;-83
2021/04/23 04:37:48;;;;;;;;;;;;;;;10.29;49.95;101942.97;4885938;28;97559;-84
2021/04/23 04:40:15;;;;;;;;;;;;;;;10.30;49.80;101949.13;4893259;28;96743;-83
2021/04/23 04:42:41;;;;;;;;;;;;;;;9.92;50.97;101949.63;4880733;28;97066;-83
2021/04/23 04:45:10;;;;;;;;;;;;;;;10.06;51.29;101955.59;4878255;28;99293;-82
2021/04/23 04:47:37;;;;;;;;;;;;;;;10.47;49.59;101954.13;4879152;28;97709;-83
2021/04/23 04:50:05;;;;;;;;;;;;;;;10.61;49.27;101957.44;4879605;28;96767;-83
2021/04/23 04:52:31;;;;;;;;;;;;;;;10.83;48.57;101956.16;4880072;28;96837;-83
2021/04/23 04:54:57;;;;;;;;;;;;;;;9.59;51.67;101958.84;4879758;28;98913;-83
2021/04/23 04:57:22;;;;;;;;;;;;;;;10.23;50.69;101958.91;4898480;28;97698;-82
2021/04/23 04:59:49;;;;;;;;;;;;;;;10.61;49.39;101966.25;4889439;28;96597;-82
2021/04/23 05:02:16;;;;;;;;;;;;;;;10.22;50.61;101966.84;4900443;28;97720;-79
2021/04/23 05:04:44;;;;;;;;;;;;;;;10.54;49.49;101959.31;4900271;28;99706;-82
2021/04/23 05:07:10;;;;;;;;;;;;;;;10.61;49.97;101963.59;4897422;28;99519;-82
2021/04/23 05:09:36;;;;;;;;;;;;;;;10.24;50.74;101965.06;4901991;28;97480;-84
2021/04/23 05:12:02;;;;;;;;;;;;;;;10.51;49.80;101961.97;4891403;28;96886;-84
2021/04/23 05:14:28;;;;;;;;;;;;;;;10.66;49.26;101972.31;4887959;28;97909;-83
2021/04/23 05:16:54;;;;;;;;;;;;;;;9.69;51.60;101976.34;4873322;28;97757;-82
2021/04/23 05:19:20;;;;;;;;;;;;;;;10.16;50.57;101970.44;4882159;28;97208;-82
2021/04/23 05:21:47;;;;;;;;;;;;;;;9.72;51.58;101991.25;4878940;28;97668;-82
2021/04/23 05:24:13;;;;;;;;;;;;;;;10.23;50.33;101979.19;4882167;28;98906;-83
2021/04/23 05:26:41;;;;;;;;;;;;;;;10.29;49.80;101987.88;4879522;28;99481;-81
2021/04/23 05:29:07;;;;;;;;;;;;;;;10.10;50.65;101980.22;4911410;28;97981;-83
2021/04/23 05:31:33;;;;;;;;;;;;;;;10.35;49.98;101981.63;4914995;28;98440;-82
2021/04/23 05:33:59;;;;;;;;;;;;;;;9.68;51.73;101985.16;4918560;28;99127;-83
2021/04/23 05:36:25;;;;;;;;;;;;;;;10.50;49.80;101991.09;4915017;28;98096;-83
2021/04/23 05:38:52;;;;;;;;;;;;;;;10.09;50.55;101989.91;4925448;28;96865;-83
2021/04/23 05:41:19;;;;;;;;;;;;;;;9.91;50.82;101998.91;4919763;28;96957;-82
2021/04/23 05:43:47;;;;;;;;;;;;;;;10.74;48.75;101996.00;4921638;28;98869;-82
2021/04/23 05:46:16;;;;;;;;;;;;;;;10.12;50.44;101995.13;4917708;28;99121;-82
2021/04/23 05:48:42;;;;;;;;;;;;;;;10.82;48.59;101994.09;4924121;28;97258;-81
2021/04/23 05:51:08;;;;;;;;;;;;;;;11.28;47.63;101995.94;4926288;28;97455;-83
2021/04/23 05:53:34;;;;;;;;;;;;;;;10.95;48.00;102000.06;4936230;28;98179;-82
2021/04/23 05:56:01;;;;;;;;;;;;;;;11.28;47.22;101990.63;4937932;28;96997;-80
2021/04/23 05:58:26;;;;;;;;;;;;;;;11.68;45.81;101990.75;4935678;28;96842;-80
2021/04/23 06:00:52;;;;;;;;;;;;;;;11.27;46.83;101996.81;4922360;28;97241;-82
2021/04/23 06:03:18;;;;;;;;;;;;;;;11.87;45.56;102002.72;4927361;28;98343;-81
2021/04/23 06:05:44;;;;;;;;;;;;;;;11.29;46.79;102001.16;4911268;28;99347;-83
2021/04/23 06:08:12;;;;;;;;;;;;;;;10.85;47.70;102006.38;4909661;28;96892;-83
2021/04/23 06:10:38;;;;;;;;;;;;;;;10.73;48.39;101994.25;4920527;28;96946;-85
2021/04/23 06:13:05;;;;;;;;;;;;;;;10.79;47.58;102002.94;4914197;28;101285;-84
2021/04/23 06:15:32;;;;;;;;;;;;;;;11.24;46.58;102004.81;4914813;28;98826;-82
2021/04/23 06:17:57;;;;;;;;;;;;;;;11.26;46.35;102009.19;4922693;28;99210;-83
2021/04/23 06:20:25;;;;;;;;;;;;;;;11.19;46.78;102012.84;4914653;28;97816;-81
2021/04/23 06:22:51;;;;;;;;;;;;;;;11.14;46.16;102009.41;4925430;28;101545;-80
2021/04/23 06:25:18;;;;;;;;;;;;;;;11.15;46.66;102016.44;4917535;28;99184;-81
2021/04/23 06:27:45;;;;;;;;;;;;;;;11.82;45.23;102010.75;4924486;28;96904;-82
2021/04/23 06:30:13;;;;;;;;;;;;;;;11.49;45.48;102014.03;4922766;28;96778;-82
2021/04/23 06:32:42;;;;;;;;;;;;;;;11.10;45.68;102028.88;4925827;28;99380;-85
2021/04/23 06:35:09;;;;;;;;;;;;;;;11.43;44.74;102030.91;4923747;28;97844;-87
2021/04/23 06:37:35;;;;;;;;;;;;;;;11.30;45.55;102024.09;4923078;28;96840;-87
2021/04/23 06:40:01;;;;;;;;;;;;;;;11.38;45.39;102022.19;4924687;28;97000;-86
2021/04/23 06:42:27;;;;;;;;;;;;;;;11.67;44.86;102026.94;4925322;28;97892;-84
2021/04/23 06:44:53;;;;;;;;;;;;;;;11.24;45.21;102025.97;4919237;28;99992;-83
2021/04/23 06:47:22;;;;;;;;;;;;;;;11.26;45.14;102018.88;4926624;28;97052;-83
2021/04/23 06:49:50;;;;;;;;;;;;;;;11.50;44.25;102024.59;4926106;28;97214;-84
2021/04/23 06:52:17;;;;;;;;;;;;;;;12.14;43.34;102028.59;4927306;28;98130;-84
2021/04/23 06:54:43;;;;;;;;;;;;;;;12.30;42.08;102035.31;4916781;28;98935;-83
2021/04/23 06:57:25;;;;;;;;;;;;;;;11.72;43.45;102032.13;4927421;28;97678;-84
2021/04/23 06:59:52;;;;;;;;;;;;;;;12.59;42.20;102037.31;4926971;28;96854;-84
2021/04/23 07:02:17;;;;;;;;;;;;;;;11.96;42.78;102039.59;4929003;28;99140;-83
2021/04/23 07:04:46;;;;;;;;;;;;;;;11.86;43.33;102044.22;4929510;28;99908;-85
2021/04/23 07:07:12;;;;;;;;;;;;;;;12.28;41.93;102031.81;4928663;28;97201;-84
2021/04/23 07:09:38;;;;;;;;;;;;;;;12.53;41.48;102042.78;4930992;28;97880;-84
2021/04/23 07:12:06;;;;;;;;;;;;;;;12.45;41.27;102041.19;4929098;28;98539;-83
2021/04/23 07:14:35;;;;;;;;;;;;;;;11.93;42.11;102047.63;4918457;28;97451;-85
2021/04/23 07:17:01;;;;;;;;;;;;;;;12.66;41.54;102044.22;4898961;28;97063;-85
2021/04/23 07:19:26;;;;;;;;;;;;;;;12.57;41.86;102054.16;4919992;28;98400;-85
2021/04/23 07:21:53;;;;;;;;;;;;;;;12.83;41.20;102045.59;4917054;28;99116;-85
2021/04/23 07:24:19;;;;;;;;;;;;;;;13.02;40.25;102041.56;4918485;28;98836;-85
2021/04/23 07:26:45;;;;;;;;;;;;;;;12.96;40.19;102053.22;4918644;28;97783;-83
2021/04/23 07:29:11;;;;;;;;;;;;;;;12.85;39.48;102055.28;4916671;28;96744;-84
2021/04/23 07:31:37;;;;;;;;;;;;;;;12.22;40.68;102055.81;4915732;28;101166;-85
2021/04/23 07:34:13;;;;;;;;;;;;;;;11.84;41.27;102059.28;4917748;28;101364;-85
2021/04/23 07:36:39;;;;;;;;;;;;;;;12.31;40.84;102063.59;4915233;28;98605;-85
2021/04/23 07:39:10;;;;;;;;;;;;;;;12.19;41.20;102063.84;4919259;28;96908;-85
2021/04/23 07:41:35;;;;;;;;;;;;;;;12.63;40.25;102069.94;4910347;28;99467;-83
2021/04/23 07:44:03;;;;;;;;;;;;;;;12.03;41.22;102062.41;4914030;28;98195;-85
2021/04/23 07:46:28;;;;;;;;;;;;;;;12.53;39.94;102066.63;4915174;28;98310;-84
2021/04/23 07:48:54;;;;;;;;;;;;;;;12.13;40.65;102069.28;4916872;28;97335;-83
2021/04/23 07:51:21;;;;;;;;;;;;;;;12.91;39.28;102065.72;4917329;28;98155;-84
2021/04/23 07:53:46;;;;;;;;;;;;;;;13.71;37.88;102072.53;4917707;28;99195;-85
2021/04/23 07:56:13;;;;;;;;;;;;;;;14.20;36.85;102069.34;4928226;28;97066;-83
2021/04/23 07:58:39;;;;;;;;;;;;;;;13.76;37.73;102068.84;4918587;28;98132;-84
2021/04/23 08:01:08;;;;;;;;;;;;;;;12.94;38.62;102068.28;4922335;28;98935;-82
2021/04/23 08:03:33;;;;;;;;;;;;;;;13.15;38.51;102070.47;4913912;28;99365;-84
2021/04/23 08:05:59;;;;;;;;;;;;;;;13.92;36.90;102064.81;4918653;28;97438;-86
2021/04/23 08:08:26;;;;;;;;;;;;;;;14.16;36.16;102065.91;4925454;28;97959;-83
2021/04/23 08:10:53;;;;;;;;;;;;;;;14.65;35.47;102073.28;4926359;28;99546;-83
2021/04/23 08:13:41;;;;;;;;;;;;;;;14.31;35.69;102057.47;4941520;28;96960;-84
2021/04/23 08:16:08;;;;;;;;;;;;;;;14.57;35.10;102064.69;5219270;22;98533;-81
2021/04/23 08:32:31;;;;;;;;;;;;;;;14.38;35.64;102068.81;5628353;23;99966;-85
2021/04/23 08:34:58;;;;;;;;;;;;;;;13.47;37.39;102090.00;4879246;28;96616;-82
2021/04/23 08:37:26;;;;;;;;;;;;;;;13.29;37.86;102079.84;4884968;28;96751;-84
2021/04/23 08:39:52;;;;;;;;;;;;;;;14.06;36.18;102079.50;4861749;29;96844;-83
2021/04/23 08:42:21;;;;;;;;;;;;;;;14.61;34.95;102076.97;4873757;28;98119;-83
2021/04/23 08:44:48;;;;;;;;;;;;;;;14.40;35.39;102085.59;4878077;28;100924;-84
2021/04/23 08:47:15;;;;;;;;;;;;;;;14.51;35.32;102078.16;4859456;29;96881;-83
2021/04/23 08:49:42;;;;;;;;;;;;;;;15.81;33.27;102088.06;4872502;28;96717;-82
2021/04/23 08:52:08;;;;;;;;;;;;;;;16.27;31.91;102082.78;4854993;29;99852;-82
2021/04/23 08:54:34;;;;;;;;;;;;;;;15.01;33.79;102081.91;4876214;28;96960;-82
2021/04/23 08:57:00;;;;;;;;;;;;;;;14.77;34.33;102079.16;4878801;28;97711;-84
2021/04/23 08:59:26;;;;;;;;;;;;;;;14.97;34.39;102085.56;4871290;28;97501;-83
2021/04/23 09:01:53;;;;;;;;;;;;;;;15.18;34.08;102083.13;4870535;29;97095;-82
2021/04/23 09:04:18;;;;;;;;;;;;;;;14.39;35.10;102077.66;4874065;28;98099;-82
2021/04/23 09:06:44;;;;;;;;;;;;;;;14.28;35.14;102088.59;4878738;28;96743;-83
2021/04/23 09:09:14;;;;;;;;;;;;;;;15.26;33.46;102076.63;4878621;28;96795;-82
2021/04/23 09:11:43;;;;;;;;;;;;;;;14.27;35.02;102077.09;4874895;28;99067;-84
2021/04/23 09:14:10;;;;;;;;;;;;;;;14.89;34.12;102082.31;4876446;29;97965;-83
2021/04/23 09:16:52;;;;;;;;;;;;;;;15.97;32.76;102083.91;4871216;28;97072;-84
2021/04/23 09:19:20;;;;;;;;;;;;;;;15.57;33.12;102080.91;4854454;29;96658;-82
2021/04/23 09:21:50;;;;;;;;;;;;;;;15.65;32.56;102078.84;4876334;28;97903;-83
2021/04/23 09:24:27;;;;;;;;;;;;;;;15.98;32.61;102074.97;4872671;28;98057;-84
2021/04/23 09:26:54;;;;;;;;;;;;;;;15.30;33.51;102070.25;4870365;28;97077;-84
2021/04/23 09:29:25;;;;;;;;;;;;;;;15.02;34.13;102081.00;4875228;28;96722;-84
2021/04/23 09:31:51;;;;;;;;;;;;;;;14.55;34.64;102074.50;4869243;28;99614;-84
2021/04/23 09:34:17;;;;;;;;;;;;;;;14.96;34.09;102085.63;4865587;28;98651;-83
2021/04/23 09:36:44;;;;;;;;;;;;;;;16.30;32.15;102101.31;4873312;28;97955;-84
2021/04/23 09:39:12;;;;;;;;;;;;;;;16.05;32.08;102083.63;4867806;28;96837;-83
2021/04/23 09:41:39;;;;;;;;;;;;;;;15.94;31.66;102087.56;4852018;29;98847;-83
2021/04/23 09:44:23;;;;;;;;;;;;;;;16.54;30.58;102077.31;4870056;28;99011;-83
2021/04/23 09:46:56;;;;;;;;;;;;;;;14.99;32.11;102074.88;4866673;28;97684;-84
2021/04/23 09:49:22;;;;;;;;;;;;;;;15.69;31.62;102076.03;4866253;28;96828;-85
2021/04/23 09:51:49;;;;;;;;;;;;;;;15.62;32.18;102076.31;4865798;28;98553;-84
2021/04/23 09:54:15;;;;;;;;;;;;;;;16.58;30.73;102084.25;4867162;28;98021;-84
2021/04/23 09:56:42;;;;;;;;;;;;;;;15.90;31.92;102075.25;4867624;28;96975;-84
2021/04/23 09:59:15;;;;;;;;;;;;;;;15.71;32.55;102082.19;4858550;28;96942;-83
2021/04/23 10:01:58;;;;;;;;;;;;;;;15.00;32.61;102079.28;4859280;28;99423;-83
2021/04/23 10:04:26;;;;;;;;;;;;;;;15.76;31.14;102085.53;4864452;28;99442;-84
2021/04/23 10:07:06;;;;;;;;;;;;;;;16.34;30.37;102086.91;4862287;28;99048;-83
2021/04/23 10:09:32;;;;;;;;;;;;;;;17.21;28.71;102074.56;4859878;29;97003;-83
2021/04/23 10:12:02;;;;;;;;;;;;;;;16.93;29.15;102066.84;4859339;28;101772;-84
2021/04/23 10:24:49;;;;;;;;;;;;;;;16.57;29.53;102087.84;5301080;23;99303;-82
2021/04/23 10:27:19;;;;;;;;;;;;;;;16.47;29.85;102082.00;4887774;28;96958;-82
2021/04/23 10:29:46;;;;;;;;;;;;;;;16.48;29.83;102074.84;4893631;28;96996;-83
2021/04/23 10:32:12;;;;;;;;;;;;;;;15.70;30.35;102087.56;4881519;28;99660;-83
2021/04/23 10:34:40;;;;;;;;;;;;;;;15.80;30.15;102089.84;4886939;28;98544;-82
2021/04/23 10:37:06;;;;;;;;;;;;;;;15.78;29.93;102086.38;4889664;28;96940;-84
2021/04/23 10:39:33;;;;;;;;;;;;;;;16.09;29.50;102085.22;4894890;28;96933;-82
2021/04/23 10:41:59;;;;;;;;;;;;;;;16.70;28.87;102082.00;4899801;28;98159;-84
2021/04/23 10:44:49;;;;;;;;;;;;;;;17.05;28.37;102085.91;4902987;28;100285;-84
2021/04/23 10:47:28;;;;;;;;;;;;;;;15.33;30.19;102080.81;4893137;28;96642;-81
2021/04/23 10:50:16;;;;;;;;;;;;;;;16.18;28.78;102085.78;4886624;28;96876;-81
2021/04/23 10:53:05;;;;;;;;;;;;;;;16.99;26.92;102080.81;4898523;28;97599;-81
2021/04/23 10:55:52;;;;;;;;;;;;;;;16.84;27.15;102086.78;4892761;28;101442;-82
2021/04/23 10:58:40;;;;;;;;;;;;;;;17.01;27.60;102084.28;4888630;28;96646;-82
2021/04/23 11:01:45;;;;;;;;;;;;;;;16.22;28.84;102082.06;4891760;28;96591;-83
2021/04/23 11:04:12;;;;;;;;;;;;;;;17.00;27.39;102077.19;4896444;28;96998;-83
2021/04/23 11:06:41;;;;;;;;;;;;;;;15.64;29.77;102072.66;4897352;28;96902;-82
2021/04/23 11:09:17;;;;;;;;;;;;;;;15.66;29.74;102078.81;4889136;28;96926;-82
2021/04/23 11:11:45;;;;;;;;;;;;;;;15.85;29.75;102081.69;4889056;28;96800;-80
2021/04/23 11:14:22;;;;;;;;;;;;;;;15.83;29.02;102091.53;4878112;28;98519;-82
2021/04/23 11:16:51;;;;;;;;;;;;;;;16.15;27.50;102088.53;4878893;28;100146;-83
2021/04/23 11:19:36;;;;;;;;;;;;;;;15.82;28.03;102087.97;4873034;28;96857;-82
2021/04/23 11:22:04;;;;;;;;;;;;;;;14.52;30.09;102095.88;4877838;28;97519;-83
2021/04/23 11:24:30;;;;;;;;;;;;;;;14.41;31.02;102095.34;4880841;28;100786;-83
2021/04/23 11:27:10;;;;;;;;;;;;;;;15.54;29.06;102096.09;4876616;28;100138;-83
2021/04/23 11:29:57;;;;;;;;;;;;;;;16.38;27.65;102102.81;4876194;28;97217;-82
2021/04/23 11:32:24;;;;;;;;;;;;;;;16.30;27.56;102095.97;4881374;28;97145;-83
2021/04/23 11:34:50;;;;;;;;;;;;;;;16.70;27.26;102097.13;4883905;28;98987;-83
2021/04/23 11:37:18;;;;;;;;;;;;;;;15.51;28.64;102095.28;4885895;28;99007;-83
2021/04/23 11:39:46;;;;;;;;;;;;;;;15.48;28.46;102096.28;4893257;28;96881;-85
2021/04/23 11:42:19;;;;;;;;;;;;;;;16.33;27.69;102101.22;4892626;28;97303;-84
2021/04/23 11:44:47;;;;;;;;;;;;;;;17.66;25.76;102085.97;4901279;28;98541;-82
2021/04/23 11:47:13;;;;;;;;;;;;;;;18.01;25.24;102083.56;4879931;28;98249;-84
2021/04/23 11:49:40;;;;;;;;;;;;;;;17.27;26.34;102082.31;4873237;28;97570;-82
2021/04/23 11:52:06;;;;;;;;;;;;;;;17.01;27.20;102078.94;4878841;28;97545;-83
2021/04/23 11:54:33;;;;;;;;;;;;;;;16.94;27.11;102077.44;4875418;28;98043;-82
2021/04/23 11:57:00;;;;;;;;;;;;;;;17.36;26.54;102084.63;4878003;28;98020;-83
2021/04/23 11:59:26;;;;;;;;;;;;;;;16.19;27.61;102086.66;4881354;28;96937;-83
2021/04/23 12:01:52;;;;;;;;;;;;;;;16.49;27.22;102085.47;4875664;28;97676;-80
2021/04/23 12:04:33;;;;;;;;;;;;;;;15.36;28.30;102079.84;4880257;28;103530;-81
2021/04/23 12:07:00;;;;;;;;;;;;;;;15.85;27.98;102076.34;4882659;28;98007;-82
2021/04/23 12:09:25;;;;;;;;;;;;;;;16.05;27.52;102078.28;4884993;28;97072;-82
2021/04/23 12:12:02;;;;;;;;;;;;;;;16.39;27.11;102083.22;4886030;28;96882;-81
2021/04/23 12:14:39;;;;;;;;;;;;;;;16.59;26.74;102084.19;4886447;28;99215;-82
2021/04/23 12:17:04;;;;;;;;;;;;;;;15.78;28.02;102080.16;4893538;28;101905;-80
2021/04/23 12:19:38;;;;;;;;;;;;;;;15.58;28.35;102083.53;4884727;28;96775;-83
2021/04/23 12:22:05;;;;;;;;;;;;;;;15.28;27.87;102081.91;4896789;28;97314;-81
2021/04/23 12:24:31;;;;;;;;;;;;;;;16.01;26.16;102088.22;4896483;28;96864;-81
2021/04/23 12:26:56;;;;;;;;;;;;;;;16.83;25.98;102078.81;4897723;28;98353;-81
2021/04/23 12:29:22;;;;;;;;;;;;;;;17.01;24.55;102086.94;4901361;28;96584;-81
2021/04/23 12:31:49;;;;;;;;;;;;;;;16.29;25.26;102078.22;4898989;28;97226;-81
2021/04/23 12:34:15;;;;;;;;;;;;;;;17.05;24.91;102082.38;4893901;28;99022;-80
2021/04/23 12:36:43;;;;;;;;;;;;;;;17.59;24.56;102070.28;4891239;28;97949;-83
2021/04/23 12:39:11;;;;;;;;;;;;;;;18.01;24.25;102075.53;4885218;28;96794;-81
2021/04/23 12:41:38;;;;;;;;;;;;;;;17.57;24.15;102070.34;4880265;28;96918;-80
2021/04/23 12:44:05;;;;;;;;;;;;;;;17.24;24.31;102072.66;4877916;28;98097;-81
2021/04/23 12:46:32;;;;;;;;;;;;;;;17.96;23.92;102073.06;4889350;28;98081;-81
2021/04/23 12:49:13;;;;;;;;;;;;;;;16.79;25.06;102071.88;4881261;28;96611;-81
2021/04/23 12:51:41;;;;;;;;;;;;;;;17.53;24.28;102063.38;4864536;28;96870;-82
2021/04/23 12:54:10;;;;;;;;;;;;;;;17.64;24.36;102079.00;4875900;28;99753;-80
2021/04/23 12:56:38;;;;;;;;;;;;;;;17.50;23.60;102076.88;4878323;28;97230;-82
2021/04/23 12:59:04;;;;;;;;;;;;;;;17.97;23.01;102065.91;4877128;28;97434;-82
2021/04/23 13:01:30;;;;;;;;;;;;;;;18.01;22.67;102073.72;4884856;28;98352;-82
2021/04/23 13:04:04;;;;;;;;;;;;;;;18.31;22.40;102071.47;4879797;28;97020;-82
2021/04/23 13:06:29;;;;;;;;;;;;;;;19.49;21.22;102070.13;4881292;28;98897;-81